createdAt,value
2017-11-04T00:01:25.061Z,8.90
2017-11-04T00:03:58.206Z,8.80
2017-11-04T00:06:29.320Z,8.80
2017-11-04T00:08:59.366Z,8.80
2017-11-04T00:11:29.701Z,8.80
2017-11-04T00:13:59.433Z,8.80
2017-11-04T00:16:30.178Z,8.90
2017-11-04T00:19:01.184Z,8.90
2017-11-04T00:21:30.594Z,8.90
2017-11-04T00:24:07.874Z,8.90
2017-11-04T00:26:39.318Z,8.90
2017-11-04T00:29:09.382Z,8.90
2017-11-04T00:31:39.763Z,8.90
2017-11-04T00:34:10.066Z,8.90
2017-11-04T00:36:40.035Z,8.90
2017-11-04T00:39:11.030Z,8.80
2017-11-04T00:41:41.359Z,8.80
2017-11-04T00:44:13.414Z,8.70
2017-11-04T00:46:44.212Z,8.70
2017-11-04T00:49:14.521Z,8.70
2017-11-04T00:51:45.989Z,8.70
2017-11-04T00:54:17.068Z,8.60
2017-11-04T00:56:46.614Z,8.70
2017-11-04T00:59:17.460Z,8.60
2017-11-04T01:01:47.491Z,8.60
2017-11-04T01:04:26.104Z,8.50
2017-11-04T01:06:56.994Z,8.50
2017-11-04T01:09:26.743Z,8.50
2017-11-04T01:11:56.842Z,8.50
2017-11-04T01:14:26.064Z,8.50
2017-11-04T01:16:56.387Z,8.60
2017-11-04T01:19:26.482Z,8.60
2017-11-04T01:21:58.843Z,8.60
2017-11-04T01:24:28.918Z,8.50
2017-11-04T01:26:58.995Z,8.50
2017-11-04T01:29:29.315Z,8.60
2017-11-04T01:31:58.630Z,8.60
2017-11-04T01:34:29.459Z,8.40
2017-11-04T01:36:59.469Z,8.40
2017-11-04T01:39:29.711Z,8.30
2017-11-04T01:42:00.703Z,8.20
2017-11-04T01:44:30.376Z,8.20
2017-11-04T01:47:07.392Z,8.20
2017-11-04T01:49:43.878Z,8.10
2017-11-04T01:52:18.010Z,8.10
2017-11-04T01:54:47.618Z,8.10
2017-11-04T01:57:17.973Z,8.10
2017-11-04T01:59:47.384Z,8.10
2017-11-04T02:02:16.651Z,8.10
2017-11-04T02:04:46.861Z,8.10
2017-11-04T02:07:19.708Z,8.10
2017-11-04T02:09:49.121Z,8.10
2017-11-04T02:12:23.725Z,8.10
2017-11-04T02:14:54.541Z,8.00
2017-11-04T02:17:29.226Z,7.90
2017-11-04T02:20:03.566Z,8.00
2017-11-04T02:22:39.412Z,7.90
2017-11-04T02:25:15.058Z,7.90
2017-11-04T02:27:44.611Z,7.90
2017-11-04T02:30:14.829Z,7.90
2017-11-04T02:32:44.071Z,7.90
2017-11-04T02:35:14.206Z,7.90
2017-11-04T02:37:44.411Z,7.90
2017-11-04T02:40:13.806Z,7.90
2017-11-04T02:42:43.078Z,7.90
2017-11-04T02:45:12.684Z,7.90
2017-11-04T02:47:42.893Z,7.90
2017-11-04T02:50:12.195Z,7.90
2017-11-04T02:52:41.915Z,8.00
2017-11-04T02:55:12.544Z,7.90
2017-11-04T02:57:43.871Z,7.90
2017-11-04T03:00:14.467Z,7.90
2017-11-04T03:02:44.712Z,8.00
2017-11-04T03:05:15.032Z,8.00
2017-11-04T03:07:45.451Z,8.00
2017-11-04T03:10:14.777Z,8.00
2017-11-04T03:12:44.002Z,8.00
2017-11-04T03:15:13.477Z,8.00
2017-11-04T03:17:44.009Z,7.90
2017-11-04T03:20:14.109Z,7.80
2017-11-04T03:22:43.428Z,7.80
2017-11-04T03:25:13.538Z,7.90
2017-11-04T03:27:43.635Z,7.90
2017-11-04T03:30:12.900Z,7.90
2017-11-04T03:32:42.163Z,7.90
2017-11-04T03:35:12.556Z,7.90
2017-11-04T03:37:41.822Z,7.90
2017-11-04T03:40:11.068Z,7.90
2017-11-04T03:42:41.082Z,7.90
2017-11-04T03:45:10.381Z,7.90
2017-11-04T03:47:39.888Z,7.90
2017-11-04T03:50:09.068Z,8.00
2017-11-04T03:52:38.421Z,8.00
2017-11-04T03:55:07.722Z,8.00
2017-11-04T03:57:36.897Z,8.10
2017-11-04T04:00:06.820Z,8.10
2017-11-04T04:02:36.717Z,8.20
2017-11-04T04:05:05.917Z,8.20
2017-11-04T04:07:37.951Z,8.20
2017-11-04T04:10:07.087Z,8.30
2017-11-04T04:12:37.320Z,8.30
2017-11-04T04:15:07.367Z,8.30
2017-11-04T04:17:36.555Z,8.30
2017-11-04T04:20:06.200Z,8.30
2017-11-04T04:22:35.577Z,8.40
2017-11-04T04:25:04.854Z,8.30
2017-11-04T04:27:34.092Z,8.30
2017-11-04T04:30:04.675Z,8.20
2017-11-04T04:32:35.011Z,8.10
2017-11-04T04:35:17.879Z,8.10
2017-11-04T04:37:55.702Z,8.10
2017-11-04T04:40:26.080Z,8.20
2017-11-04T04:42:55.424Z,8.20
2017-11-04T04:45:25.541Z,8.20
2017-11-04T04:47:55.534Z,8.20
2017-11-04T04:50:25.869Z,8.20
2017-11-04T04:52:55.158Z,8.20
2017-11-04T04:55:24.429Z,8.20
2017-11-04T04:57:53.664Z,8.20
2017-11-04T05:00:22.949Z,8.30
2017-11-04T05:02:52.164Z,8.30
2017-11-04T05:05:21.470Z,8.30
2017-11-04T05:07:51.728Z,8.40
2017-11-04T05:10:22.038Z,8.50
2017-11-04T05:12:52.285Z,8.40
2017-11-04T05:15:21.451Z,8.40
2017-11-04T05:17:51.410Z,8.40
2017-11-04T05:20:20.572Z,8.40
2017-11-04T05:22:52.314Z,8.50
2017-11-04T05:25:21.538Z,8.40
2017-11-04T05:27:51.236Z,8.40
2017-11-04T05:30:20.528Z,8.40
2017-11-04T05:32:49.747Z,8.40
2017-11-04T05:35:19.488Z,8.50
2017-11-04T05:37:48.846Z,8.50
2017-11-04T05:40:18.829Z,8.50
2017-11-04T05:42:48.185Z,8.50
2017-11-04T05:45:17.837Z,8.50
2017-11-04T05:47:47.109Z,8.50
2017-11-04T05:50:16.576Z,8.50
2017-11-04T05:52:45.858Z,8.50
2017-11-04T05:55:15.214Z,8.50
2017-11-04T05:57:44.379Z,8.50
2017-11-04T06:00:14.295Z,8.50
2017-11-04T06:02:43.914Z,8.50
2017-11-04T06:05:13.949Z,8.50
2017-11-04T06:07:43.832Z,8.50
2017-11-04T06:10:13.847Z,8.60
2017-11-04T06:12:43.419Z,8.60
2017-11-04T06:15:15.070Z,8.60
2017-11-04T06:17:44.394Z,8.60
2017-11-04T06:20:13.644Z,8.60
2017-11-04T06:22:43.106Z,8.60
2017-11-04T06:25:13.141Z,8.70
2017-11-04T06:27:43.089Z,8.70
2017-11-04T06:30:12.350Z,8.70
2017-11-04T06:32:42.270Z,8.70
2017-11-04T06:35:12.277Z,8.70
2017-11-04T06:37:42.378Z,8.60
2017-11-04T06:40:11.537Z,8.60
2017-11-04T06:42:40.778Z,8.60
2017-11-04T06:45:11.230Z,8.60
2017-11-04T06:47:41.156Z,8.50
2017-11-04T06:50:10.496Z,8.50
2017-11-04T06:52:39.798Z,8.50
2017-11-04T06:55:09.250Z,8.60
2017-11-04T06:57:39.324Z,8.60
2017-11-04T07:00:08.758Z,8.60
2017-11-04T07:02:38.007Z,8.60
2017-11-04T07:05:07.255Z,8.50
2017-11-04T07:07:37.446Z,8.60
2017-11-04T07:10:06.763Z,8.60
2017-11-04T07:12:36.742Z,8.70
2017-11-04T07:15:06.077Z,8.70
2017-11-04T07:17:35.287Z,8.70
2017-11-04T07:20:04.619Z,8.70
2017-11-04T07:22:34.763Z,8.80
2017-11-04T07:25:06.477Z,8.80
2017-11-04T07:27:36.538Z,8.80
2017-11-04T07:30:06.108Z,8.80
2017-11-04T07:32:36.356Z,8.80
2017-11-04T07:35:06.024Z,8.80
2017-11-04T07:37:36.487Z,8.80
2017-11-04T07:40:06.301Z,8.80
2017-11-04T07:42:36.044Z,8.80
2017-11-04T07:45:05.420Z,8.80
2017-11-04T07:47:38.894Z,8.80
2017-11-04T07:50:08.985Z,8.80
2017-11-04T07:52:38.538Z,8.80
2017-11-04T07:55:08.224Z,8.70
2017-11-04T07:57:38.776Z,8.80
2017-11-04T08:00:08.446Z,8.80
2017-11-04T08:02:39.070Z,8.90
2017-11-04T08:05:08.292Z,8.90
2017-11-04T08:07:38.938Z,9.10
2017-11-04T08:10:09.169Z,9.00
2017-11-04T08:12:40.379Z,9.10
2017-11-04T08:15:10.139Z,9.10
2017-11-04T08:17:40.081Z,9.10
2017-11-04T08:20:10.718Z,9.20
2017-11-04T08:22:41.535Z,9.20
2017-11-04T08:25:12.416Z,9.20
2017-11-04T08:27:42.620Z,9.30
2017-11-04T08:30:12.679Z,9.30
2017-11-04T08:32:42.685Z,9.40
2017-11-04T08:35:18.392Z,9.50
2017-11-04T08:37:49.082Z,9.50
2017-11-04T08:40:18.680Z,9.60
2017-11-04T08:42:49.062Z,9.60
2017-11-04T08:45:19.419Z,9.80
2017-11-04T08:48:01.717Z,9.90
2017-11-04T08:50:34.406Z,9.90
2017-11-04T08:53:05.656Z,10.10
2017-11-04T08:55:42.859Z,10.20
2017-11-04T08:58:12.510Z,10.20
2017-11-04T09:00:42.006Z,10.30
2017-11-04T09:03:12.147Z,10.30
2017-11-04T09:05:42.880Z,10.50
2017-11-04T09:08:19.097Z,10.60
2017-11-04T09:10:50.635Z,10.70
2017-11-04T09:13:20.549Z,10.90
2017-11-04T09:15:51.254Z,10.90
2017-11-04T09:18:20.895Z,11.00
2017-11-04T09:20:51.497Z,10.90
2017-11-04T09:23:21.460Z,11.00
2017-11-04T09:25:52.472Z,11.00
2017-11-04T09:28:22.180Z,11.20
2017-11-04T09:30:53.318Z,11.40
2017-11-04T09:33:23.684Z,11.60
2017-11-04T09:35:53.277Z,11.50
2017-11-04T09:38:22.686Z,11.40
2017-11-04T09:40:55.161Z,11.10
2017-11-04T09:43:25.853Z,11.10
2017-11-04T09:45:56.158Z,11.20
2017-11-04T09:48:28.663Z,11.20
2017-11-04T09:50:58.858Z,11.20
2017-11-04T09:53:28.410Z,11.20
2017-11-04T09:55:58.537Z,11.30
2017-11-04T09:58:42.970Z,11.60
2017-11-04T10:01:18.309Z,11.90
2017-11-04T10:03:48.749Z,12.10
2017-11-04T10:06:24.764Z,12.10
2017-11-04T10:09:24.754Z,12.40
2017-11-04T10:12:17.443Z,12.50
2017-11-04T10:14:48.468Z,12.70
2017-11-04T10:17:43.636Z,12.80
2017-11-04T10:20:23.285Z,12.80
2017-11-04T10:22:55.878Z,13.00
2017-11-04T10:25:37.234Z,13.20
2017-11-04T10:28:16.547Z,13.20
2017-11-04T10:30:50.022Z,13.30
2017-11-04T10:33:47.196Z,13.60
2017-11-04T10:36:23.720Z,13.60
2017-11-04T10:38:54.521Z,13.40
2017-11-04T10:41:24.923Z,13.40
2017-11-04T10:44:10.451Z,13.30
2017-11-04T10:46:40.815Z,13.10
2017-11-04T10:49:11.745Z,13.10
2017-11-04T10:57:55.705Z,12.70
2017-11-04T11:00:44.770Z,12.90
2017-11-04T11:03:46.969Z,12.80
2017-11-04T11:06:26.186Z,13.00
2017-11-04T11:08:58.379Z,12.80
2017-11-04T11:11:28.400Z,12.80
2017-11-04T11:14:00.025Z,12.90
2017-11-04T11:16:29.809Z,13.10
2017-11-04T11:18:59.968Z,13.10
2017-11-04T11:21:36.159Z,13.20
2017-11-04T11:24:08.759Z,13.10
2017-11-04T11:26:38.360Z,13.00
2017-11-04T11:29:08.881Z,13.10
2017-11-04T11:31:40.704Z,13.10
2017-11-04T11:34:11.095Z,13.20
2017-11-04T11:36:52.136Z,13.20
2017-11-04T11:39:22.734Z,13.60
2017-11-04T11:42:07.821Z,13.60
2017-11-04T11:44:39.022Z,13.80
2017-11-04T11:47:15.206Z,13.90
2017-11-04T11:50:15.201Z,13.80
2017-11-04T11:52:45.709Z,13.70
2017-11-04T11:55:15.330Z,13.60
2017-11-04T11:57:46.459Z,13.80
2017-11-04T12:00:17.879Z,13.70
2017-11-04T12:02:49.374Z,13.70
2017-11-04T12:05:20.873Z,13.90
2017-11-04T12:07:50.510Z,14.00
2017-11-04T12:10:20.568Z,14.80
2017-11-04T12:12:50.396Z,16.20
2017-11-04T12:15:20.416Z,16.80
2017-11-04T12:17:53.155Z,16.80
2017-11-04T12:20:23.475Z,16.60
2017-11-04T12:22:54.556Z,15.80
2017-11-04T12:25:24.616Z,16.60
2017-11-04T12:27:54.324Z,17.60
2017-11-04T12:30:24.016Z,18.70
2017-11-04T12:32:53.704Z,19.20
2017-11-04T12:35:24.190Z,19.90
2017-11-04T12:37:54.488Z,20.10
2017-11-04T12:40:24.512Z,20.10
2017-11-04T12:42:54.703Z,19.10
2017-11-04T12:45:24.261Z,19.10
2017-11-04T12:47:54.637Z,17.60
2017-11-04T12:50:25.491Z,19.10
2017-11-04T12:52:55.346Z,19.10
2017-11-04T12:55:27.030Z,19.80
2017-11-04T12:57:56.935Z,20.50
2017-11-04T13:00:27.634Z,21.30
2017-11-04T13:02:57.348Z,21.30
2017-11-04T13:05:28.405Z,21.40
2017-11-04T13:08:00.852Z,21.40
2017-11-04T13:10:31.431Z,21.50
2017-11-04T13:13:02.568Z,21.50
2017-11-04T13:15:33.487Z,21.60
2017-11-04T13:18:04.216Z,21.70
2017-11-04T13:20:34.512Z,22.00
2017-11-04T13:23:04.880Z,22.00
2017-11-04T13:25:34.703Z,21.70
2017-11-04T13:28:04.609Z,21.00
2017-11-04T13:30:34.431Z,21.30
2017-11-04T13:33:04.079Z,21.80
2017-11-04T13:35:33.585Z,22.10
2017-11-04T13:38:03.146Z,22.90
2017-11-04T13:40:33.771Z,23.30
2017-11-04T13:43:03.092Z,23.40
2017-11-04T13:48:34.313Z,23.80
2017-11-04T13:51:05.077Z,24.30
2017-11-04T13:53:34.739Z,24.20
2017-11-04T13:56:05.529Z,24.10
2017-11-04T13:58:35.600Z,23.30
2017-11-04T14:01:05.545Z,23.10
2017-11-04T14:03:36.524Z,22.60
2017-11-04T14:06:09.416Z,22.60
2017-11-04T14:08:40.573Z,21.20
2017-11-04T14:11:10.037Z,19.70
2017-11-04T14:13:40.710Z,18.40
2017-11-04T14:16:10.962Z,17.80
2017-11-04T14:18:41.719Z,16.90
2017-11-04T14:21:14.787Z,16.80
2017-11-04T14:23:44.489Z,16.50
2017-11-04T14:26:14.040Z,16.30
2017-11-04T14:28:43.847Z,16.30
2017-11-04T14:31:14.176Z,16.50
2017-11-04T14:33:51.904Z,16.50
2017-11-04T14:36:22.340Z,16.30
2017-11-04T14:38:52.929Z,16.00
2017-11-04T14:41:22.564Z,15.90
2017-11-04T14:43:52.014Z,15.90
2017-11-04T14:46:24.026Z,15.80
2017-11-04T14:48:54.452Z,15.80
2017-11-04T14:51:33.913Z,15.70
2017-11-04T14:54:04.476Z,15.60
2017-11-04T14:56:43.692Z,15.60
2017-11-04T15:00:22.854Z,16.00
2017-11-04T15:02:53.022Z,16.00
2017-11-04T15:05:23.441Z,16.50
2017-11-04T15:07:55.950Z,16.80
2017-11-04T15:10:26.105Z,16.60
2017-11-04T15:12:57.560Z,16.50
2017-11-04T15:15:28.777Z,16.30
2017-11-04T15:18:03.864Z,16.10
2017-11-04T15:20:46.480Z,15.90
2017-11-04T15:23:37.681Z,15.80
2017-11-04T15:26:23.929Z,15.80
2017-11-04T15:28:57.037Z,15.80
2017-11-04T15:31:29.421Z,15.60
2017-11-04T15:33:59.856Z,15.60
2017-11-04T15:36:31.177Z,15.50
2017-11-04T15:39:03.151Z,15.50
2017-11-04T15:41:32.939Z,15.40
2017-11-04T15:44:02.613Z,15.40
2017-11-04T15:46:36.417Z,15.50
2017-11-04T15:49:08.388Z,15.40
2017-11-04T15:51:39.343Z,15.50
2017-11-04T15:54:09.090Z,15.50
2017-11-04T15:56:41.375Z,15.60
2017-11-04T15:59:14.942Z,15.50
2017-11-04T16:01:47.371Z,15.60
2017-11-04T16:04:22.846Z,15.60
2017-11-04T16:06:56.615Z,15.60
2017-11-04T16:09:32.718Z,15.60
2017-11-04T16:12:04.491Z,15.70
2017-11-04T16:14:35.094Z,15.70
2017-11-04T16:17:05.145Z,15.70
2017-11-04T16:19:34.816Z,15.80
2017-11-04T16:22:04.867Z,15.80
2017-11-04T16:24:35.244Z,15.80
2017-11-04T16:27:04.966Z,15.80
2017-11-04T16:29:37.837Z,15.80
2017-11-04T16:32:08.674Z,15.80
2017-11-04T16:34:38.785Z,15.80
2017-11-04T16:37:08.929Z,15.70
2017-11-04T16:39:39.302Z,15.70
2017-11-04T16:42:10.649Z,15.70
2017-11-04T16:44:45.568Z,15.70
2017-11-04T16:47:15.441Z,15.70
2017-11-04T16:49:47.963Z,15.70
2017-11-04T16:52:18.937Z,15.70
2017-11-04T16:54:48.495Z,15.70
2017-11-04T16:57:19.821Z,15.70
2017-11-04T16:59:57.172Z,15.70
2017-11-04T17:02:38.265Z,15.70
2017-11-04T17:05:08.547Z,15.70
2017-11-04T17:07:39.063Z,15.60
2017-11-04T17:10:11.003Z,15.60
2017-11-04T17:12:42.970Z,15.60
2017-11-04T17:15:20.924Z,15.60
2017-11-04T17:18:03.641Z,15.60
2017-11-04T17:23:13.657Z,15.70
2017-11-04T17:29:09.972Z,15.60
2017-11-04T17:31:40.290Z,15.70
2017-11-04T17:34:10.123Z,15.70
2017-11-04T17:36:42.741Z,15.60
2017-11-04T17:39:13.718Z,15.70
2017-11-04T17:41:45.511Z,15.70
2017-11-04T17:44:20.386Z,15.70
2017-11-04T17:46:51.662Z,15.80
2017-11-04T17:49:25.223Z,15.80
2017-11-04T17:51:55.581Z,15.80
2017-11-04T17:54:31.333Z,15.70
2017-11-04T17:57:03.557Z,15.70
2017-11-04T17:59:34.912Z,15.70
2017-11-04T18:02:08.032Z,15.70
2017-11-04T18:04:39.643Z,15.70
2017-11-04T18:07:26.485Z,15.70
2017-11-04T18:10:04.288Z,15.70
2017-11-04T18:12:37.290Z,15.70
2017-11-04T18:15:12.556Z,15.80
2017-11-04T18:17:52.023Z,15.80
2017-11-04T18:20:23.825Z,15.80
2017-11-04T18:23:04.025Z,15.80
2017-11-04T18:25:37.627Z,15.80
2017-11-04T18:28:20.696Z,15.90
2017-11-04T18:31:00.688Z,15.90
2017-11-04T18:33:36.167Z,15.90
2017-11-04T18:36:10.331Z,15.90
2017-11-04T18:38:46.173Z,15.90
2017-11-04T18:41:23.594Z,15.80
2017-11-04T18:43:56.163Z,15.80
2017-11-04T18:46:29.369Z,15.70
2017-11-04T18:49:02.458Z,15.80
2017-11-04T18:51:36.908Z,15.70
2017-11-04T18:54:20.859Z,15.70
2017-11-04T18:56:52.453Z,15.80
2017-11-04T18:59:25.554Z,15.80
2017-11-04T19:02:02.389Z,15.80
2017-11-04T19:04:39.266Z,15.80
2017-11-04T19:07:20.654Z,15.90
2017-11-04T19:10:04.403Z,15.80
2017-11-04T19:12:37.911Z,15.90
2017-11-04T19:15:11.262Z,15.90
2017-11-04T19:17:44.475Z,15.80
2017-11-04T19:20:20.714Z,16.00
2017-11-04T19:22:59.539Z,16.10
2017-11-04T19:25:38.246Z,16.00
2017-11-04T19:28:13.554Z,15.90
2017-11-04T19:30:52.444Z,16.10
2017-11-04T19:33:26.494Z,16.10
2017-11-04T19:36:05.038Z,16.10
2017-11-04T19:38:43.930Z,16.10
2017-11-04T19:41:21.203Z,16.10
2017-11-04T19:44:01.511Z,16.10
2017-11-04T19:46:40.185Z,16.10
2017-11-04T19:49:23.755Z,16.00
2017-11-04T19:51:57.365Z,15.90
2017-11-04T19:54:32.894Z,15.90
2017-11-04T19:57:09.292Z,16.00
2017-11-04T19:59:51.594Z,16.00
2017-11-04T20:02:29.899Z,16.00
2017-11-04T20:05:05.342Z,16.00
2017-11-04T20:07:46.008Z,16.00
2017-11-04T20:10:26.552Z,15.90
2017-11-04T20:13:07.763Z,15.80
2017-11-04T20:15:45.439Z,15.80
2017-11-04T20:18:19.049Z,15.80
2017-11-04T20:21:01.736Z,15.90
2017-11-04T20:23:41.573Z,15.80
2017-11-04T20:26:28.409Z,15.90
2017-11-04T20:29:07.865Z,15.90
2017-11-04T20:31:47.673Z,15.90
2017-11-04T20:34:27.116Z,15.90
2017-11-04T20:37:05.126Z,15.90
2017-11-04T20:39:48.336Z,15.90
2017-11-04T20:42:21.866Z,15.90
2017-11-04T20:45:00.585Z,15.90
2017-11-04T20:47:33.900Z,15.90
2017-11-04T20:50:09.643Z,15.90
2017-11-04T20:52:45.277Z,15.80
2017-11-04T20:58:14.173Z,15.80
2017-11-04T21:00:47.319Z,15.90
2017-11-04T21:03:17.819Z,15.80
2017-11-04T21:05:52.188Z,15.80
2017-11-04T21:08:26.601Z,15.80
2017-11-04T21:11:01.126Z,15.80
2017-11-04T21:13:42.002Z,15.70
2017-11-04T21:16:22.175Z,15.70
2017-11-04T21:18:54.021Z,15.70
2017-11-04T21:21:26.310Z,15.70
2017-11-04T21:23:57.592Z,15.70
2017-11-04T21:26:29.485Z,15.70
2017-11-04T21:29:02.790Z,15.70
2017-11-04T21:31:43.935Z,15.70
2017-11-04T21:34:15.889Z,15.80
2017-11-04T21:36:49.602Z,15.90
2017-11-04T21:39:19.621Z,15.90
2017-11-04T21:41:52.586Z,15.90
2017-11-04T21:44:23.284Z,15.90
2017-11-04T21:46:55.647Z,15.90
2017-11-04T21:49:26.844Z,15.90
2017-11-04T21:52:07.754Z,15.90
2017-11-04T21:54:38.141Z,16.00
2017-11-04T21:57:24.751Z,15.90
2017-11-04T22:00:00.032Z,15.90
2017-11-04T22:02:31.380Z,15.90
2017-11-04T22:05:05.923Z,16.00
2017-11-04T22:07:37.321Z,16.00
2017-11-04T22:10:16.259Z,16.10
2017-11-04T22:12:47.867Z,16.10
2017-11-04T22:15:31.577Z,16.10
2017-11-04T22:18:10.513Z,16.10
2017-11-04T22:20:44.626Z,16.10
2017-11-04T22:23:22.213Z,16.10
2017-11-04T22:26:09.517Z,16.10
2017-11-04T22:28:59.424Z,16.10
2017-11-04T22:31:49.108Z,16.10
2017-11-04T22:34:32.279Z,16.10
2017-11-04T22:37:17.107Z,16.10
2017-11-04T22:39:54.103Z,16.10
2017-11-04T22:42:34.577Z,16.00
2017-11-04T22:45:18.590Z,15.90
2017-11-04T22:47:51.592Z,15.90
2017-11-04T22:50:21.982Z,15.90
2017-11-04T22:53:02.632Z,15.80
2017-11-04T22:55:40.358Z,15.70
2017-11-04T22:58:10.853Z,15.70
2017-11-04T23:00:41.506Z,15.60
2017-11-04T23:03:12.411Z,15.40
2017-11-04T23:05:43.176Z,15.40
2017-11-04T23:08:14.645Z,15.20
2017-11-04T23:10:45.824Z,15.20
2017-11-04T23:13:22.694Z,15.00
2017-11-04T23:15:54.639Z,14.90
2017-11-04T23:18:25.747Z,14.90
2017-11-04T23:20:55.666Z,14.80
2017-11-04T23:23:25.474Z,14.80
2017-11-04T23:25:55.689Z,14.70
2017-11-04T23:28:25.484Z,14.50
2017-11-04T23:30:55.288Z,14.30
2017-11-04T23:33:25.783Z,14.20
2017-11-04T23:35:56.313Z,14.20
2017-11-04T23:38:26.033Z,14.20
2017-11-04T23:40:57.394Z,14.20
2017-11-04T23:43:28.047Z,14.20
2017-11-04T23:45:57.922Z,14.10
2017-11-04T23:48:28.594Z,14.10
2017-11-04T23:50:58.755Z,14.10
2017-11-04T23:53:28.468Z,14.20
2017-11-04T23:55:58.983Z,14.00
2017-11-04T23:58:29.527Z,14.00
